Terminal Aerodrome Forecast
Issued by NWS

Home | Current Version | Previous Version | Text Only | Print | Product List | Glossary On
Versions: 1 2 3 4 5 6 7 8 9 10 11 12 13 14 15 16 17
000
FTUS44 KTSA 041100
TAFRVS
TAF
KRVS 041135Z 0412/0512 36015G23KT 4SM -RAPL OVC009
      TEMPO 0412/0413 4SM -FZRA OVC009
     FM041300 36015G23KT 4SM -PL OVC009
     FM041800 01014G22KT 3SM -SN OVC015
      TEMPO 0418/0421 1SM -SN OVC008
     FM042200 01014G20KT P6SM OVC040
     FM050100 02010KT P6SM OVC100
     FM050600 02005KT P6SM BKN250=

USA.gov is the U.S. government's official web portal to all federal, state and local government web resources and services.